Terminal Aerodrome Forecast
Issued by NWS New Orleans/Baton Rouge, LA

Home | Current Version | Previous Version | Text Only | Print | Product List | Glossary On
Versions: 1 2 3 4 5 6 7 8 9 10 11 12 13 14
000
FTUS44 KLIX 041721
TAFBTR
TAF
KBTR 041721Z 0418/0518 12011KT P6SM VCTS BKN025CB
     FM050000 13007KT P6SM BKN250
     FM051500 11009KT P6SM SCT250=

USA.gov is the U.S. government's official web portal to all federal, state and local government web resources and services.